Terminal Aerodrome Forecast
Issued by NWS

Home | Current Version | Previous Version | Text Only | Print | Product List | Glossary On
Versions: 1 2 3 4 5 6 7 8 9 10 11 12
000
FTUS44 KTSA 051700
TAFBVO
TAF
KBVO 051720Z 0518/0618 17014G22KT P6SM SCT050 BKN150
     FM060000 16012KT P6SM BKN050
     FM060300 16008KT P6SM VCTS BKN050CB
      TEMPO 0603/0607 5SM -TSRA BR BKN050CB
     FM060700 16008KT 5SM -TSRA BKN030CB
     FM061200 17010KT 4SM -SHRA BR OVC025=

USA.gov is the U.S. government's official web portal to all federal, state and local government web resources and services.